sensor_id;sensor_type;location;lat;lon;timestamp;P1;durP1;ratioP1;P2;durP2;ratioP2
44126;SDS011;29786;50.798;7.302;2023-08-12T00:00:30;29.9;;;21.7;;
44126;SDS011;29786;50.798;7.302;2023-08-12T00:01:29;30;;;22.6;;
44126;SDS011;29786;50.798;7.302;2023-08-12T00:02:29;30.2;;;22.4;;
44126;SDS011;29786;50.798;7.302;2023-08-12T00:03:31;27.2;;;22.3;;
44126;SDS011;29786;50.798;7.302;2023-08-12T00:04:29;26.7;;;21.2;;
44126;SDS011;29786;50.798;7.302;2023-08-12T00:05:29;32.2;;;22.9;;
44126;SDS011;29786;50.798;7.302;2023-08-12T00:06:30;29.6;;;23.3;;
44126;SDS011;29786;50.798;7.302;2023-08-12T00:07:30;31.1;;;24.2;;
44126;SDS011;29786;50.798;7.302;2023-08-12T00:08:30;32.8;;;26;;
44126;SDS011;29786;50.798;7.302;2023-08-12T00:09:30;29.5;;;24.7;;
44126;SDS011;29786;50.798;7.302;2023-08-12T00:10:30;24.6;;;21.3;;
44126;SDS011;29786;50.798;7.302;2023-08-12T00:11:29;29.4;;;24.2;;
44126;SDS011;29786;50.798;7.302;2023-08-12T00:12:30;30.4;;;24.2;;
44126;SDS011;29786;50.798;7.302;2023-08-12T00:13:30;32.8;;;24.3;;
44126;SDS011;29786;50.798;7.302;2023-08-12T00:14:29;29.8;;;22.3;;
44126;SDS011;29786;50.798;7.302;2023-08-12T00:15:29;29.1;;;23.5;;
44126;SDS011;29786;50.798;7.302;2023-08-12T00:16:30;30;;;23.8;;
44126;SDS011;29786;50.798;7.302;2023-08-12T00:17:30;22.7;;;19.2;;
44126;SDS011;29786;50.798;7.302;2023-08-12T00:18:30;29.7;;;21.7;;
44126;SDS011;29786;50.798;7.302;2023-08-12T00:19:30;26.6;;;22.1;;
44126;SDS011;29786;50.798;7.302;2023-08-12T00:20:30;29.1;;;22.7;;
44126;SDS011;29786;50.798;7.302;2023-08-12T00:21:29;29.1;;;22.6;;
44126;SDS011;29786;50.798;7.302;2023-08-12T00:22:30;32.3;;;23.6;;
44126;SDS011;29786;50.798;7.302;2023-08-12T00:23:29;30.7;;;24.1;;
44126;SDS011;29786;50.798;7.302;2023-08-12T00:24:30;31.3;;;24.5;;
44126;SDS011;29786;50.798;7.302;2023-08-12T00:25:30;32.3;;;25.9;;
44126;SDS011;29786;50.798;7.302;2023-08-12T00:26:30;38.2;;;26.6;;
44126;SDS011;29786;50.798;7.302;2023-08-12T00:27:29;39.9;;;27;;
44126;SDS011;29786;50.798;7.302;2023-08-12T00:28:29;32.9;;;25.7;;
44126;SDS011;29786;50.798;7.302;2023-08-12T00:29:30;34.1;;;24.3;;
44126;SDS011;29786;50.798;7.302;2023-08-12T00:30:30;31.5;;;24.1;;
44126;SDS011;29786;50.798;7.302;2023-08-12T00:31:29;33.5;;;25.2;;
44126;SDS011;29786;50.798;7.302;2023-08-12T00:32:30;33.6;;;23.8;;
44126;SDS011;29786;50.798;7.302;2023-08-12T00:33:29;26;;;19.8;;
44126;SDS011;29786;50.798;7.302;2023-08-12T00:34:30;33.2;;;23.7;;
44126;SDS011;29786;50.798;7.302;2023-08-12T00:35:29;30;;;23.9;;
44126;SDS011;29786;50.798;7.302;2023-08-12T00:36:29;31.7;;;23.5;;
44126;SDS011;29786;50.798;7.302;2023-08-12T00:37:29;33;;;24.8;;
44126;SDS011;29786;50.798;7.302;2023-08-12T00:38:29;34.3;;;24.4;;
44126;SDS011;29786;50.798;7.302;2023-08-12T00:39:29;32.6;;;23.1;;
44126;SDS011;29786;50.798;7.302;2023-08-12T00:40:30;29.6;;;21.7;;
44126;SDS011;29786;50.798;7.302;2023-08-12T00:41:29;32;;;21.5;;
44126;SDS011;29786;50.798;7.302;2023-08-12T00:42:29;22.7;;;17.8;;
44126;SDS011;29786;50.798;7.302;2023-08-12T00:43:30;23.7;;;18.5;;
44126;SDS011;29786;50.798;7.302;2023-08-12T00:44:30;29.1;;;19.5;;
44126;SDS011;29786;50.798;7.302;2023-08-12T00:45:30;26.3;;;19.2;;
44126;SDS011;29786;50.798;7.302;2023-08-12T00:46:29;29.7;;;20.9;;
44126;SDS011;29786;50.798;7.302;2023-08-12T00:47:29;32.9;;;22.3;;
44126;SDS011;29786;50.798;7.302;2023-08-12T00:48:29;33;;;23.8;;
44126;SDS011;29786;50.798;7.302;2023-08-12T00:49:29;32.1;;;23.1;;
44126;SDS011;29786;50.798;7.302;2023-08-12T00:50:30;34.2;;;23.6;;
44126;SDS011;29786;50.798;7.302;2023-08-12T00:51:29;29.6;;;20;;
44126;SDS011;29786;50.798;7.302;2023-08-12T00:52:29;26.3;;;19.9;;
44126;SDS011;29786;50.798;7.302;2023-08-12T00:53:30;26.1;;;19;;
44126;SDS011;29786;50.798;7.302;2023-08-12T00:54:30;26.2;;;19;;
44126;SDS011;29786;50.798;7.302;2023-08-12T00:55:30;25.1;;;19.8;;
44126;SDS011;29786;50.798;7.302;2023-08-12T00:56:29;28.2;;;21.9;;
44126;SDS011;29786;50.798;7.302;2023-08-12T00:57:29;28.9;;;19.3;;
44126;SDS011;29786;50.798;7.302;2023-08-12T00:58:30;29.1;;;20.8;;
44126;SDS011;29786;50.798;7.302;2023-08-12T00:59:29;24.3;;;18;;
44126;SDS011;29786;50.798;7.302;2023-08-12T01:00:30;27;;;19.6;;
44126;SDS011;29786;50.798;7.302;2023-08-12T01:01:30;23.9;;;18.7;;
44126;SDS011;29786;50.798;7.302;2023-08-12T01:02:30;22.9;;;17.6;;
44126;SDS011;29786;50.798;7.302;2023-08-12T01:03:30;24.6;;;17.7;;
44126;SDS011;29786;50.798;7.302;2023-08-12T01:04:29;22.7;;;16.6;;
44126;SDS011;29786;50.798;7.302;2023-08-12T01:05:30;23.9;;;16.9;;
44126;SDS011;29786;50.798;7.302;2023-08-12T01:06:29;19.8;;;14.8;;
44126;SDS011;29786;50.798;7.302;2023-08-12T01:07:29;19.6;;;16.1;;
44126;SDS011;29786;50.798;7.302;2023-08-12T01:08:30;19.6;;;14.3;;
44126;SDS011;29786;50.798;7.302;2023-08-12T01:09:30;18.6;;;14.4;;
44126;SDS011;29786;50.798;7.302;2023-08-12T01:10:32;16.6;;;12.3;;
44126;SDS011;29786;50.798;7.302;2023-08-12T01:12:34;17;;;12.5;;
44126;SDS011;29786;50.798;7.302;2023-08-12T01:13:35;18.1;;;13.6;;
44126;SDS011;29786;50.798;7.302;2023-08-12T01:14:33;14.7;;;12.4;;
44126;SDS011;29786;50.798;7.302;2023-08-12T01:15:29;15.5;;;13.3;;
44126;SDS011;29786;50.798;7.302;2023-08-12T01:16:30;14.1;;;11;;
44126;SDS011;29786;50.798;7.302;2023-08-12T01:17:30;14.6;;;10.9;;
44126;SDS011;29786;50.798;7.302;2023-08-12T01:18:29;14.1;;;10.5;;
44126;SDS011;29786;50.798;7.302;2023-08-12T01:19:32;13.7;;;9.9;;
44126;SDS011;29786;50.798;7.302;2023-08-12T01:20:30;15.3;;;10.9;;
44126;SDS011;29786;50.798;7.302;2023-08-12T01:21:30;14.4;;;10.2;;
44126;SDS011;29786;50.798;7.302;2023-08-12T01:22:29;12;;;9.2;;
44126;SDS011;29786;50.798;7.302;2023-08-12T01:23:30;13.2;;;9.6;;
44126;SDS011;29786;50.798;7.302;2023-08-12T01:24:37;14;;;10;;
44126;SDS011;29786;50.798;7.302;2023-08-12T01:25:30;11.3;;;8.3;;
44126;SDS011;29786;50.798;7.302;2023-08-12T01:26:29;11.6;;;8.9;;
44126;SDS011;29786;50.798;7.302;2023-08-12T01:27:30;10.8;;;9.4;;
44126;SDS011;29786;50.798;7.302;2023-08-12T01:28:29;12.3;;;9.2;;
44126;SDS011;29786;50.798;7.302;2023-08-12T01:29:30;11.7;;;9.1;;
44126;SDS011;29786;50.798;7.302;2023-08-12T01:30:29;9.9;;;8.7;;
44126;SDS011;29786;50.798;7.302;2023-08-12T01:31:32;11.2;;;9.1;;
44126;SDS011;29786;50.798;7.302;2023-08-12T01:32:34;11;;;8.1;;
44126;SDS011;29786;50.798;7.302;2023-08-12T01:33:32;10.4;;;8.4;;
44126;SDS011;29786;50.798;7.302;2023-08-12T01:34:34;8.7;;;7.5;;
44126;SDS011;29786;50.798;7.302;2023-08-12T01:35:35;12.2;;;9.3;;
44126;SDS011;29786;50.798;7.302;2023-08-12T01:36:29;13.2;;;8.6;;
44126;SDS011;29786;50.798;7.302;2023-08-12T01:37:30;13.8;;;9.2;;
44126;SDS011;29786;50.798;7.302;2023-08-12T01:38:30;13.4;;;9.5;;
44126;SDS011;29786;50.798;7.302;2023-08-12T01:39:30;14.8;;;10.2;;
44126;SDS011;29786;50.798;7.302;2023-08-12T01:40:29;13.1;;;8.2;;
44126;SDS011;29786;50.798;7.302;2023-08-12T01:41:29;11.1;;;8.1;;
44126;SDS011;29786;50.798;7.302;2023-08-12T01:42:32;13.4;;;10.1;;
44126;SDS011;29786;50.798;7.302;2023-08-12T01:43:29;13;;;9.5;;
44126;SDS011;29786;50.798;7.302;2023-08-12T01:44:29;12.7;;;9.4;;
44126;SDS011;29786;50.798;7.302;2023-08-12T01:45:32;11.8;;;9.2;;
44126;SDS011;29786;50.798;7.302;2023-08-12T01:46:29;10.1;;;7.4;;
44126;SDS011;29786;50.798;7.302;2023-08-12T01:47:29;12.6;;;8.8;;
44126;SDS011;29786;50.798;7.302;2023-08-12T01:48:30;13.8;;;8.8;;
44126;SDS011;29786;50.798;7.302;2023-08-12T01:49:29;11.4;;;8.6;;
44126;SDS011;29786;50.798;7.302;2023-08-12T01:50:30;14;;;9.6;;
44126;SDS011;29786;50.798;7.302;2023-08-12T01:51:30;9;;;7.7;;
44126;SDS011;29786;50.798;7.302;2023-08-12T01:52:30;9.1;;;7.1;;
44126;SDS011;29786;50.798;7.302;2023-08-12T01:53:29;9.5;;;7.8;;
44126;SDS011;29786;50.798;7.302;2023-08-12T01:54:30;11.1;;;7.2;;
44126;SDS011;29786;50.798;7.302;2023-08-12T01:55:30;10.8;;;7.5;;
44126;SDS011;29786;50.798;7.302;2023-08-12T01:56:29;11.8;;;7.7;;
44126;SDS011;29786;50.798;7.302;2023-08-12T01:57:30;12.6;;;8.5;;
44126;SDS011;29786;50.798;7.302;2023-08-12T01:58:30;11.8;;;9;;
44126;SDS011;29786;50.798;7.302;2023-08-12T01:59:30;10.5;;;8.9;;
44126;SDS011;29786;50.798;7.302;2023-08-12T02:00:29;11;;;8.7;;
44126;SDS011;29786;50.798;7.302;2023-08-12T02:01:29;11.2;;;8;;
44126;SDS011;29786;50.798;7.302;2023-08-12T02:02:29;12.2;;;8.4;;
44126;SDS011;29786;50.798;7.302;2023-08-12T02:03:30;11.2;;;8.1;;
44126;SDS011;29786;50.798;7.302;2023-08-12T02:04:30;11.1;;;8.3;;
44126;SDS011;29786;50.798;7.302;2023-08-12T02:05:30;10.3;;;7.7;;
44126;SDS011;29786;50.798;7.302;2023-08-12T02:06:29;11.9;;;7.8;;
44126;SDS011;29786;50.798;7.302;2023-08-12T02:07:29;9.1;;;7.6;;
44126;SDS011;29786;50.798;7.302;2023-08-12T02:08:30;10.1;;;8.5;;
44126;SDS011;29786;50.798;7.302;2023-08-12T02:09:30;11;;;8.7;;
44126;SDS011;29786;50.798;7.302;2023-08-12T02:10:30;11.1;;;9.3;;
44126;SDS011;29786;50.798;7.302;2023-08-12T02:11:30;8.7;;;7.2;;
44126;SDS011;29786;50.798;7.302;2023-08-12T02:12:30;9.8;;;8.3;;
44126;SDS011;29786;50.798;7.302;2023-08-12T02:13:30;10.3;;;8.5;;
44126;SDS011;29786;50.798;7.302;2023-08-12T02:14:29;9.9;;;8.8;;
44126;SDS011;29786;50.798;7.302;2023-08-12T02:15:30;10.2;;;8;;
44126;SDS011;29786;50.798;7.302;2023-08-12T02:16:29;11.3;;;9.5;;
44126;SDS011;29786;50.798;7.302;2023-08-12T02:17:29;13.6;;;8.8;;
44126;SDS011;29786;50.798;7.302;2023-08-12T02:19:29;10.3;;;8.5;;
44126;SDS011;29786;50.798;7.302;2023-08-12T02:20:30;8.7;;;7.8;;
44126;SDS011;29786;50.798;7.302;2023-08-12T02:21:29;9.3;;;7;;
44126;SDS011;29786;50.798;7.302;2023-08-12T02:22:30;12.3;;;8.2;;
44126;SDS011;29786;50.798;7.302;2023-08-12T02:23:30;11.8;;;7.9;;
44126;SDS011;29786;50.798;7.302;2023-08-12T02:24:29;10.2;;;8.1;;
44126;SDS011;29786;50.798;7.302;2023-08-12T02:25:30;9.4;;;7.2;;
44126;SDS011;29786;50.798;7.302;2023-08-12T02:26:29;9.2;;;6.8;;
44126;SDS011;29786;50.798;7.302;2023-08-12T02:27:29;12.1;;;7.4;;
44126;SDS011;29786;50.798;7.302;2023-08-12T02:28:30;8.7;;;6.8;;
44126;SDS011;29786;50.798;7.302;2023-08-12T02:29:29;8.1;;;6.7;;
44126;SDS011;29786;50.798;7.302;2023-08-12T02:30:30;7.3;;;6.4;;
44126;SDS011;29786;50.798;7.302;2023-08-12T02:31:29;10.9;;;6.8;;
44126;SDS011;29786;50.798;7.302;2023-08-12T02:32:30;9.7;;;6.9;;
44126;SDS011;29786;50.798;7.302;2023-08-12T02:33:30;9.6;;;6.5;;
44126;SDS011;29786;50.798;7.302;2023-08-12T02:34:30;8;;;6.6;;
44126;SDS011;29786;50.798;7.302;2023-08-12T02:35:30;8.7;;;7.1;;
44126;SDS011;29786;50.798;7.302;2023-08-12T02:36:30;8.3;;;6.5;;
44126;SDS011;29786;50.798;7.302;2023-08-12T02:37:30;8.8;;;6.9;;
44126;SDS011;29786;50.798;7.302;2023-08-12T02:38:30;8.2;;;6.8;;
44126;SDS011;29786;50.798;7.302;2023-08-12T02:39:30;8.9;;;7.4;;
44126;SDS011;29786;50.798;7.302;2023-08-12T02:40:29;9;;;6.9;;
44126;SDS011;29786;50.798;7.302;2023-08-12T02:41:30;8.9;;;6.9;;
44126;SDS011;29786;50.798;7.302;2023-08-12T02:42:30;9.2;;;6.7;;
44126;SDS011;29786;50.798;7.302;2023-08-12T02:43:29;9.6;;;7;;
44126;SDS011;29786;50.798;7.302;2023-08-12T02:44:29;10.6;;;7.3;;
44126;SDS011;29786;50.798;7.302;2023-08-12T02:45:29;8.8;;;6.6;;
44126;SDS011;29786;50.798;7.302;2023-08-12T02:46:29;8.8;;;7;;
44126;SDS011;29786;50.798;7.302;2023-08-12T02:47:30;10.1;;;7.4;;
44126;SDS011;29786;50.798;7.302;2023-08-12T02:48:30;8.8;;;6.4;;
44126;SDS011;29786;50.798;7.302;2023-08-12T02:49:29;9.1;;;7.1;;
44126;SDS011;29786;50.798;7.302;2023-08-12T02:50:30;10.2;;;7.2;;
44126;SDS011;29786;50.798;7.302;2023-08-12T02:51:30;11.5;;;7.9;;
44126;SDS011;29786;50.798;7.302;2023-08-12T02:52:29;8.4;;;7.4;;
44126;SDS011;29786;50.798;7.302;2023-08-12T02:53:29;11.6;;;7.8;;
44126;SDS011;29786;50.798;7.302;2023-08-12T02:54:29;7.5;;;6.4;;
44126;SDS011;29786;50.798;7.302;2023-08-12T02:55:30;9;;;7;;
44126;SDS011;29786;50.798;7.302;2023-08-12T02:56:30;9.2;;;7.3;;
44126;SDS011;29786;50.798;7.302;2023-08-12T02:57:30;9.6;;;7.3;;
44126;SDS011;29786;50.798;7.302;2023-08-12T02:58:29;10;;;7.2;;
44126;SDS011;29786;50.798;7.302;2023-08-12T02:59:29;10.1;;;6.7;;
44126;SDS011;29786;50.798;7.302;2023-08-12T03:00:29;9;;;7.4;;
44126;SDS011;29786;50.798;7.302;2023-08-12T03:01:30;8.9;;;6.7;;
44126;SDS011;29786;50.798;7.302;2023-08-12T03:02:30;8.3;;;6.7;;
44126;SDS011;29786;50.798;7.302;2023-08-12T03:03:29;9.9;;;6.9;;
44126;SDS011;29786;50.798;7.302;2023-08-12T03:04:29;9.9;;;6.8;;
44126;SDS011;29786;50.798;7.302;2023-08-12T03:05:30;9.9;;;7;;
44126;SDS011;29786;50.798;7.302;2023-08-12T03:06:30;9.5;;;6.3;;
44126;SDS011;29786;50.798;7.302;2023-08-12T03:07:30;7.7;;;6.5;;
44126;SDS011;29786;50.798;7.302;2023-08-12T03:08:30;10.6;;;6.5;;
44126;SDS011;29786;50.798;7.302;2023-08-12T03:09:30;8.2;;;6.5;;
44126;SDS011;29786;50.798;7.302;2023-08-12T03:10:30;8.8;;;7;;
44126;SDS011;29786;50.798;7.302;2023-08-12T03:11:29;8;;;6.4;;
44126;SDS011;29786;50.798;7.302;2023-08-12T03:12:29;7.3;;;6.1;;
44126;SDS011;29786;50.798;7.302;2023-08-12T03:13:29;8;;;5.5;;
44126;SDS011;29786;50.798;7.302;2023-08-12T03:14:28;9.4;;;6.5;;
44126;SDS011;29786;50.798;7.302;2023-08-12T03:15:30;7.1;;;6.2;;
44126;SDS011;29786;50.798;7.302;2023-08-12T03:16:29;9.2;;;6.7;;
44126;SDS011;29786;50.798;7.302;2023-08-12T03:17:30;8.8;;;7;;
44126;SDS011;29786;50.798;7.302;2023-08-12T03:18:29;8.3;;;6.7;;
44126;SDS011;29786;50.798;7.302;2023-08-12T03:19:29;10.6;;;6.9;;
44126;SDS011;29786;50.798;7.302;2023-08-12T03:20:29;10.1;;;7.1;;
44126;SDS011;29786;50.798;7.302;2023-08-12T03:21:29;7.6;;;6.1;;
44126;SDS011;29786;50.798;7.302;2023-08-12T03:22:30;6.9;;;5.7;;
44126;SDS011;29786;50.798;7.302;2023-08-12T03:23:29;6.5;;;5.8;;
44126;SDS011;29786;50.798;7.302;2023-08-12T03:24:29;7.1;;;6.2;;
44126;SDS011;29786;50.798;7.302;2023-08-12T03:25:30;8.2;;;6.1;;
44126;SDS011;29786;50.798;7.302;2023-08-12T03:26:30;9.7;;;6.3;;
44126;SDS011;29786;50.798;7.302;2023-08-12T03:27:30;10.6;;;6.6;;
44126;SDS011;29786;50.798;7.302;2023-08-12T03:28:30;8.2;;;6.6;;
44126;SDS011;29786;50.798;7.302;2023-08-12T03:29:29;8.7;;;6.9;;
44126;SDS011;29786;50.798;7.302;2023-08-12T03:30:30;7.8;;;5.9;;
44126;SDS011;29786;50.798;7.302;2023-08-12T03:31:29;8.4;;;6;;
44126;SDS011;29786;50.798;7.302;2023-08-12T03:32:29;7.6;;;5.8;;
44126;SDS011;29786;50.798;7.302;2023-08-12T03:33:30;9.8;;;6.5;;
44126;SDS011;29786;50.798;7.302;2023-08-12T03:34:30;7.9;;;5.4;;
44126;SDS011;29786;50.798;7.302;2023-08-12T03:35:29;8.3;;;7.1;;
44126;SDS011;29786;50.798;7.302;2023-08-12T03:36:30;7.6;;;6.3;;
44126;SDS011;29786;50.798;7.302;2023-08-12T03:37:29;8.8;;;7.2;;
44126;SDS011;29786;50.798;7.302;2023-08-12T03:38:29;8.1;;;7;;
44126;SDS011;29786;50.798;7.302;2023-08-12T03:39:29;9.1;;;7.4;;
44126;SDS011;29786;50.798;7.302;2023-08-12T03:40:30;10.7;;;7.5;;
44126;SDS011;29786;50.798;7.302;2023-08-12T03:41:30;9.6;;;7.9;;
44126;SDS011;29786;50.798;7.302;2023-08-12T03:42:29;12;;;8.7;;
44126;SDS011;29786;50.798;7.302;2023-08-12T03:43:30;10.3;;;7.7;;
44126;SDS011;29786;50.798;7.302;2023-08-12T03:44:29;9.5;;;8.6;;
44126;SDS011;29786;50.798;7.302;2023-08-12T03:45:30;8.8;;;7.8;;
44126;SDS011;29786;50.798;7.302;2023-08-12T03:46:30;8.4;;;7.6;;
44126;SDS011;29786;50.798;7.302;2023-08-12T03:47:30;9.5;;;7.6;;
44126;SDS011;29786;50.798;7.302;2023-08-12T03:48:29;10.8;;;8.5;;
44126;SDS011;29786;50.798;7.302;2023-08-12T03:49:30;11.6;;;8.9;;
44126;SDS011;29786;50.798;7.302;2023-08-12T03:50:32;12.7;;;9.2;;
44126;SDS011;29786;50.798;7.302;2023-08-12T03:51:30;10.7;;;8.2;;
44126;SDS011;29786;50.798;7.302;2023-08-12T03:52:29;10.2;;;8.5;;
44126;SDS011;29786;50.798;7.302;2023-08-12T03:53:30;9.4;;;8.3;;
44126;SDS011;29786;50.798;7.302;2023-08-12T03:54:30;10.4;;;8.4;;
44126;SDS011;29786;50.798;7.302;2023-08-12T03:55:30;9.9;;;7.5;;
44126;SDS011;29786;50.798;7.302;2023-08-12T03:56:29;9.9;;;8.6;;
44126;SDS011;29786;50.798;7.302;2023-08-12T03:57:29;9.7;;;8.7;;
44126;SDS011;29786;50.798;7.302;2023-08-12T03:58:30;9.7;;;8.2;;
44126;SDS011;29786;50.798;7.302;2023-08-12T03:59:29;10.1;;;8.4;;
44126;SDS011;29786;50.798;7.302;2023-08-12T04:00:30;11;;;8.1;;
44126;SDS011;29786;50.798;7.302;2023-08-12T04:01:29;9.5;;;8.1;;
44126;SDS011;29786;50.798;7.302;2023-08-12T04:02:30;11.7;;;8.7;;
44126;SDS011;29786;50.798;7.302;2023-08-12T04:03:29;9.5;;;8.3;;
44126;SDS011;29786;50.798;7.302;2023-08-12T04:04:30;11.2;;;8.1;;
44126;SDS011;29786;50.798;7.302;2023-08-12T04:05:29;8.8;;;7.9;;
44126;SDS011;29786;50.798;7.302;2023-08-12T04:06:30;10.5;;;9;;
44126;SDS011;29786;50.798;7.302;2023-08-12T04:07:30;9.5;;;8.1;;
44126;SDS011;29786;50.798;7.302;2023-08-12T04:08:30;11.9;;;8;;
44126;SDS011;29786;50.798;7.302;2023-08-12T04:09:29;8.4;;;7.5;;
44126;SDS011;29786;50.798;7.302;2023-08-12T04:10:30;9.3;;;8.3;;
44126;SDS011;29786;50.798;7.302;2023-08-12T04:11:30;7.9;;;7.1;;
44126;SDS011;29786;50.798;7.302;2023-08-12T04:12:29;10.4;;;8;;
44126;SDS011;29786;50.798;7.302;2023-08-12T04:13:29;9;;;7.2;;
44126;SDS011;29786;50.798;7.302;2023-08-12T04:14:30;11;;;8.5;;
44126;SDS011;29786;50.798;7.302;2023-08-12T04:15:29;10.3;;;7.9;;
44126;SDS011;29786;50.798;7.302;2023-08-12T04:16:29;11.5;;;8.6;;
44126;SDS011;29786;50.798;7.302;2023-08-12T04:17:30;8.7;;;7.8;;
44126;SDS011;29786;50.798;7.302;2023-08-12T04:18:30;9.5;;;8.1;;
44126;SDS011;29786;50.798;7.302;2023-08-12T04:19:29;9.3;;;7.5;;
44126;SDS011;29786;50.798;7.302;2023-08-12T04:20:30;9.3;;;7.8;;
44126;SDS011;29786;50.798;7.302;2023-08-12T04:21:30;9.2;;;7.6;;
44126;SDS011;29786;50.798;7.302;2023-08-12T04:22:29;10.3;;;7.3;;
44126;SDS011;29786;50.798;7.302;2023-08-12T04:23:30;9.2;;;7.5;;
44126;SDS011;29786;50.798;7.302;2023-08-12T04:24:29;8.5;;;7.3;;
44126;SDS011;29786;50.798;7.302;2023-08-12T04:25:30;9;;;7.7;;
44126;SDS011;29786;50.798;7.302;2023-08-12T04:26:30;11.6;;;7.4;;
44126;SDS011;29786;50.798;7.302;2023-08-12T04:27:30;9.3;;;7.4;;
44126;SDS011;29786;50.798;7.302;2023-08-12T04:28:30;7.9;;;6.6;;
44126;SDS011;29786;50.798;7.302;2023-08-12T04:29:29;9;;;6.9;;
44126;SDS011;29786;50.798;7.302;2023-08-12T04:30:30;8.6;;;7.1;;
44126;SDS011;29786;50.798;7.302;2023-08-12T04:31:29;10.4;;;7.6;;
44126;SDS011;29786;50.798;7.302;2023-08-12T04:32:30;8.2;;;7;;
44126;SDS011;29786;50.798;7.302;2023-08-12T04:33:29;7.3;;;6.1;;
44126;SDS011;29786;50.798;7.302;2023-08-12T04:34:30;8.7;;;7.1;;
44126;SDS011;29786;50.798;7.302;2023-08-12T04:35:31;7.5;;;6.6;;
44126;SDS011;29786;50.798;7.302;2023-08-12T04:36:30;8.9;;;8;;
44126;SDS011;29786;50.798;7.302;2023-08-12T04:37:30;8.4;;;7.1;;
44126;SDS011;29786;50.798;7.302;2023-08-12T04:38:30;8.5;;;7.2;;
44126;SDS011;29786;50.798;7.302;2023-08-12T04:39:29;8;;;6.7;;
44126;SDS011;29786;50.798;7.302;2023-08-12T04:40:29;8.5;;;6.6;;
44126;SDS011;29786;50.798;7.302;2023-08-12T04:41:29;8.3;;;6.5;;
44126;SDS011;29786;50.798;7.302;2023-08-12T04:42:30;6.9;;;6.2;;
44126;SDS011;29786;50.798;7.302;2023-08-12T04:43:30;8.9;;;6.6;;
44126;SDS011;29786;50.798;7.302;2023-08-12T04:44:30;7.3;;;6.3;;
44126;SDS011;29786;50.798;7.302;2023-08-12T04:45:30;6.8;;;6;;
44126;SDS011;29786;50.798;7.302;2023-08-12T04:46:29;7.1;;;5.5;;
44126;SDS011;29786;50.798;7.302;2023-08-12T04:47:30;8.5;;;6.3;;
44126;SDS011;29786;50.798;7.302;2023-08-12T04:48:30;10.7;;;6.4;;
44126;SDS011;29786;50.798;7.302;2023-08-12T04:49:30;7;;;5.8;;
44126;SDS011;29786;50.798;7.302;2023-08-12T04:50:30;6.2;;;5.6;;
44126;SDS011;29786;50.798;7.302;2023-08-12T04:51:29;6.7;;;5.4;;
44126;SDS011;29786;50.798;7.302;2023-08-12T04:52:29;5.4;;;4.9;;
44126;SDS011;29786;50.798;7.302;2023-08-12T04:53:30;7.6;;;5.8;;
44126;SDS011;29786;50.798;7.302;2023-08-12T04:54:29;6.3;;;5.7;;
44126;SDS011;29786;50.798;7.302;2023-08-12T04:55:29;8.5;;;6.1;;
44126;SDS011;29786;50.798;7.302;2023-08-12T04:56:30;6.9;;;5.8;;
44126;SDS011;29786;50.798;7.302;2023-08-12T04:57:30;6.7;;;5.2;;
44126;SDS011;29786;50.798;7.302;2023-08-12T04:58:30;7.2;;;5.5;;
44126;SDS011;29786;50.798;7.302;2023-08-12T04:59:30;6.6;;;5.2;;
44126;SDS011;29786;50.798;7.302;2023-08-12T05:00:29;7.8;;;5.2;;
44126;SDS011;29786;50.798;7.302;2023-08-12T05:01:29;6.3;;;5.3;;
44126;SDS011;29786;50.798;7.302;2023-08-12T05:02:30;6.5;;;5.5;;
44126;SDS011;29786;50.798;7.302;2023-08-12T05:03:29;6.8;;;5.5;;
44126;SDS011;29786;50.798;7.302;2023-08-12T05:04:30;6.5;;;5.9;;
44126;SDS011;29786;50.798;7.302;2023-08-12T05:05:29;7;;;6;;
44126;SDS011;29786;50.798;7.302;2023-08-12T05:06:28;6.5;;;5.5;;
44126;SDS011;29786;50.798;7.302;2023-08-12T05:07:29;6;;;5.3;;
44126;SDS011;29786;50.798;7.302;2023-08-12T05:08:30;8.1;;;5.8;;
44126;SDS011;29786;50.798;7.302;2023-08-12T05:09:30;6;;;5;;
44126;SDS011;29786;50.798;7.302;2023-08-12T05:10:30;6.2;;;5.6;;
44126;SDS011;29786;50.798;7.302;2023-08-12T05:11:29;6.6;;;5.9;;
44126;SDS011;29786;50.798;7.302;2023-08-12T05:12:30;8.1;;;6;;
44126;SDS011;29786;50.798;7.302;2023-08-12T05:13:30;7.7;;;5.9;;
44126;SDS011;29786;50.798;7.302;2023-08-12T05:14:29;6.8;;;5;;
44126;SDS011;29786;50.798;7.302;2023-08-12T05:15:29;5.8;;;4.8;;
44126;SDS011;29786;50.798;7.302;2023-08-12T05:16:29;10.1;;;5.2;;
44126;SDS011;29786;50.798;7.302;2023-08-12T05:17:30;7.4;;;5.5;;
44126;SDS011;29786;50.798;7.302;2023-08-12T05:18:30;7.2;;;4.9;;
44126;SDS011;29786;50.798;7.302;2023-08-12T05:19:30;6.4;;;4.5;;
44126;SDS011;29786;50.798;7.302;2023-08-12T05:20:30;7.2;;;5.3;;
44126;SDS011;29786;50.798;7.302;2023-08-12T05:21:29;6.2;;;4.8;;
44126;SDS011;29786;50.798;7.302;2023-08-12T05:22:29;6.7;;;5.4;;
44126;SDS011;29786;50.798;7.302;2023-08-12T05:23:29;7.6;;;5;;
44126;SDS011;29786;50.798;7.302;2023-08-12T05:24:29;6.6;;;5.1;;
44126;SDS011;29786;50.798;7.302;2023-08-12T05:25:30;5.5;;;4.7;;
44126;SDS011;29786;50.798;7.302;2023-08-12T05:26:29;5.1;;;4.5;;
44126;SDS011;29786;50.798;7.302;2023-08-12T05:27:29;7.7;;;5.3;;
44126;SDS011;29786;50.798;7.302;2023-08-12T05:28:29;6.9;;;4.5;;
44126;SDS011;29786;50.798;7.302;2023-08-12T05:29:30;6.6;;;4.8;;
44126;SDS011;29786;50.798;7.302;2023-08-12T05:30:30;6;;;4.8;;
44126;SDS011;29786;50.798;7.302;2023-08-12T05:31:29;6.6;;;4.7;;
44126;SDS011;29786;50.798;7.302;2023-08-12T05:32:29;6.3;;;4.4;;
44126;SDS011;29786;50.798;7.302;2023-08-12T05:33:30;5.1;;;4.6;;
44126;SDS011;29786;50.798;7.302;2023-08-12T05:34:29;4.8;;;4.2;;
44126;SDS011;29786;50.798;7.302;2023-08-12T05:35:34;6.4;;;4.2;;
44126;SDS011;29786;50.798;7.302;2023-08-12T05:36:30;4.6;;;4.2;;
44126;SDS011;29786;50.798;7.302;2023-08-12T05:37:29;4.6;;;4.1;;
44126;SDS011;29786;50.798;7.302;2023-08-12T05:38:30;6.2;;;4.6;;
44126;SDS011;29786;50.798;7.302;2023-08-12T05:39:29;4.4;;;3.8;;
44126;SDS011;29786;50.798;7.302;2023-08-12T05:40:30;4.3;;;3.9;;
44126;SDS011;29786;50.798;7.302;2023-08-12T05:41:29;4.8;;;4.4;;
44126;SDS011;29786;50.798;7.302;2023-08-12T05:42:30;6;;;4.2;;
44126;SDS011;29786;50.798;7.302;2023-08-12T05:43:29;5.6;;;4.2;;
44126;SDS011;29786;50.798;7.302;2023-08-12T05:44:30;4.4;;;4;;
44126;SDS011;29786;50.798;7.302;2023-08-12T05:45:30;5.5;;;4.4;;
44126;SDS011;29786;50.798;7.302;2023-08-12T05:46:30;4.8;;;4.3;;
44126;SDS011;29786;50.798;7.302;2023-08-12T05:47:30;5.4;;;4.4;;
44126;SDS011;29786;50.798;7.302;2023-08-12T05:48:30;6.6;;;4.7;;
44126;SDS011;29786;50.798;7.302;2023-08-12T05:49:30;5.3;;;4.6;;
44126;SDS011;29786;50.798;7.302;2023-08-12T05:50:30;5.7;;;5;;
44126;SDS011;29786;50.798;7.302;2023-08-12T05:51:29;5.7;;;4.6;;
44126;SDS011;29786;50.798;7.302;2023-08-12T05:52:29;6;;;5.1;;
44126;SDS011;29786;50.798;7.302;2023-08-12T05:53:29;5.8;;;4.6;;
44126;SDS011;29786;50.798;7.302;2023-08-12T05:54:30;6.5;;;5.3;;
44126;SDS011;29786;50.798;7.302;2023-08-12T05:55:30;5.2;;;4.7;;
44126;SDS011;29786;50.798;7.302;2023-08-12T05:56:29;6.2;;;4.9;;
44126;SDS011;29786;50.798;7.302;2023-08-12T05:57:30;5;;;4.5;;
44126;SDS011;29786;50.798;7.302;2023-08-12T05:58:30;5.4;;;4.9;;
44126;SDS011;29786;50.798;7.302;2023-08-12T05:59:30;7.7;;;4.9;;
44126;SDS011;29786;50.798;7.302;2023-08-12T06:00:30;6;;;5.4;;
44126;SDS011;29786;50.798;7.302;2023-08-12T06:01:29;5.9;;;5.1;;
44126;SDS011;29786;50.798;7.302;2023-08-12T06:02:31;6.1;;;5.5;;
44126;SDS011;29786;50.798;7.302;2023-08-12T06:03:30;6.2;;;5.6;;
44126;SDS011;29786;50.798;7.302;2023-08-12T06:04:29;6.6;;;5.2;;
44126;SDS011;29786;50.798;7.302;2023-08-12T06:05:30;6.5;;;4.6;;
44126;SDS011;29786;50.798;7.302;2023-08-12T06:06:29;5.9;;;4.9;;
44126;SDS011;29786;50.798;7.302;2023-08-12T06:07:30;5.1;;;4.6;;
44126;SDS011;29786;50.798;7.302;2023-08-12T06:08:30;6.2;;;5.6;;
44126;SDS011;29786;50.798;7.302;2023-08-12T06:10:29;9;;;6.2;;
44126;SDS011;29786;50.798;7.302;2023-08-12T06:11:30;6.7;;;6;;
44126;SDS011;29786;50.798;7.302;2023-08-12T06:12:29;7.1;;;5.7;;
44126;SDS011;29786;50.798;7.302;2023-08-12T06:13:29;6.7;;;6.1;;
44126;SDS011;29786;50.798;7.302;2023-08-12T06:14:30;6.9;;;5.4;;